sensor_id;sensor_type;location;lat;lon;timestamp;P1;durP1;ratioP1;P2;durP2;ratioP2
12585;SDS011;6358;50.760;0.282;2022-10-19T00:01:09;4.40;;;1.93;;
12585;SDS011;6358;50.760;0.282;2022-10-19T00:03:36;4.57;;;1.80;;
12585;SDS011;6358;50.760;0.282;2022-10-19T00:06:18;4.30;;;1.73;;
12585;SDS011;6358;50.760;0.282;2022-10-19T00:08:55;3.73;;;2.10;;
12585;SDS011;6358;50.760;0.282;2022-10-19T00:11:21;5.40;;;2.17;;
12585;SDS011;6358;50.760;0.282;2022-10-19T00:13:48;4.47;;;1.60;;
12585;SDS011;6358;50.760;0.282;2022-10-19T00:16:14;2.93;;;1.70;;
12585;SDS011;6358;50.760;0.282;2022-10-19T00:18:42;4.93;;;2.20;;
12585;SDS011;6358;50.760;0.282;2022-10-19T00:21:10;4.17;;;1.80;;
12585;SDS011;6358;50.760;0.282;2022-10-19T00:23:37;2.53;;;1.70;;
12585;SDS011;6358;50.760;0.282;2022-10-19T00:26:03;3.53;;;1.67;;
12585;SDS011;6358;50.760;0.282;2022-10-19T00:28:29;3.60;;;1.97;;
12585;SDS011;6358;50.760;0.282;2022-10-19T00:30:55;3.53;;;1.57;;
12585;SDS011;6358;50.760;0.282;2022-10-19T00:33:22;3.63;;;1.70;;
12585;SDS011;6358;50.760;0.282;2022-10-19T00:35:48;3.47;;;1.87;;
12585;SDS011;6358;50.760;0.282;2022-10-19T00:38:15;3.35;;;1.92;;
12585;SDS011;6358;50.760;0.282;2022-10-19T00:40:42;3.63;;;1.90;;
12585;SDS011;6358;50.760;0.282;2022-10-19T00:43:11;2.53;;;1.53;;
12585;SDS011;6358;50.760;0.282;2022-10-19T00:45:38;2.93;;;1.70;;
12585;SDS011;6358;50.760;0.282;2022-10-19T00:48:04;2.93;;;1.60;;
12585;SDS011;6358;50.760;0.282;2022-10-19T00:50:30;3.57;;;1.70;;
12585;SDS011;6358;50.760;0.282;2022-10-19T00:52:57;4.50;;;1.90;;
12585;SDS011;6358;50.760;0.282;2022-10-19T00:55:23;3.97;;;1.77;;
12585;SDS011;6358;50.760;0.282;2022-10-19T00:57:49;4.53;;;2.00;;
12585;SDS011;6358;50.760;0.282;2022-10-19T01:00:15;3.67;;;1.65;;
12585;SDS011;6358;50.760;0.282;2022-10-19T01:02:41;3.73;;;1.80;;
12585;SDS011;6358;50.760;0.282;2022-10-19T01:05:07;4.17;;;1.80;;
12585;SDS011;6358;50.760;0.282;2022-10-19T01:07:34;2.47;;;1.52;;
12585;SDS011;6358;50.760;0.282;2022-10-19T01:10:00;3.73;;;1.70;;
12585;SDS011;6358;50.760;0.282;2022-10-19T01:12:30;3.53;;;1.60;;
12585;SDS011;6358;50.760;0.282;2022-10-19T01:35:41;3.50;;;1.67;;
12585;SDS011;6358;50.760;0.282;2022-10-19T01:38:23;3.20;;;1.63;;
12585;SDS011;6358;50.760;0.282;2022-10-19T01:48:40;2.93;;;1.67;;
12585;SDS011;6358;50.760;0.282;2022-10-19T01:51:12;2.97;;;1.80;;
12585;SDS011;6358;50.760;0.282;2022-10-19T01:53:45;3.00;;;1.80;;
12585;SDS011;6358;50.760;0.282;2022-10-19T01:56:13;2.47;;;1.77;;
12585;SDS011;6358;50.760;0.282;2022-10-19T01:58:42;3.03;;;1.60;;
12585;SDS011;6358;50.760;0.282;2022-10-19T02:01:09;3.40;;;1.73;;
12585;SDS011;6358;50.760;0.282;2022-10-19T02:03:35;3.77;;;1.67;;
12585;SDS011;6358;50.760;0.282;2022-10-19T02:06:03;4.03;;;2.07;;
12585;SDS011;6358;50.760;0.282;2022-10-19T02:08:33;5.10;;;1.90;;
12585;SDS011;6358;50.760;0.282;2022-10-19T02:11:01;3.63;;;1.50;;
12585;SDS011;6358;50.760;0.282;2022-10-19T02:13:27;3.60;;;1.60;;
12585;SDS011;6358;50.760;0.282;2022-10-19T02:15:54;2.87;;;1.40;;
12585;SDS011;6358;50.760;0.282;2022-10-19T02:18:29;2.50;;;1.40;;
12585;SDS011;6358;50.760;0.282;2022-10-19T02:20:56;5.87;;;2.40;;
12585;SDS011;6358;50.760;0.282;2022-10-19T02:23:23;4.07;;;1.70;;
12585;SDS011;6358;50.760;0.282;2022-10-19T02:25:50;4.47;;;1.53;;
12585;SDS011;6358;50.760;0.282;2022-10-19T02:28:16;4.07;;;1.73;;
12585;SDS011;6358;50.760;0.282;2022-10-19T02:30:42;3.30;;;1.73;;
12585;SDS011;6358;50.760;0.282;2022-10-19T02:33:08;2.67;;;1.87;;
12585;SDS011;6358;50.760;0.282;2022-10-19T02:35:36;2.87;;;1.57;;
12585;SDS011;6358;50.760;0.282;2022-10-19T02:38:02;4.07;;;1.87;;
12585;SDS011;6358;50.760;0.282;2022-10-19T02:40:30;2.00;;;1.50;;
12585;SDS011;6358;50.760;0.282;2022-10-19T02:42:59;2.40;;;1.70;;
12585;SDS011;6358;50.760;0.282;2022-10-19T02:45:30;2.23;;;1.40;;
12585;SDS011;6358;50.760;0.282;2022-10-19T02:47:57;5.70;;;1.70;;
12585;SDS011;6358;50.760;0.282;2022-10-19T02:50:25;3.57;;;1.70;;
12585;SDS011;6358;50.760;0.282;2022-10-19T02:52:51;2.67;;;1.57;;
12585;SDS011;6358;50.760;0.282;2022-10-19T02:55:17;3.73;;;1.83;;
12585;SDS011;6358;50.760;0.282;2022-10-19T02:57:43;3.80;;;1.97;;
12585;SDS011;6358;50.760;0.282;2022-10-19T03:00:09;4.73;;;2.00;;
12585;SDS011;6358;50.760;0.282;2022-10-19T03:02:36;4.60;;;2.00;;
12585;SDS011;6358;50.760;0.282;2022-10-19T03:05:02;4.03;;;1.90;;
12585;SDS011;6358;50.760;0.282;2022-10-19T03:07:28;3.30;;;1.80;;
12585;SDS011;6358;50.760;0.282;2022-10-19T03:09:55;5.03;;;1.90;;
12585;SDS011;6358;50.760;0.282;2022-10-19T03:12:21;3.77;;;2.00;;
12585;SDS011;6358;50.760;0.282;2022-10-19T03:14:47;4.13;;;1.83;;
12585;SDS011;6358;50.760;0.282;2022-10-19T03:17:13;3.37;;;2.03;;
12585;SDS011;6358;50.760;0.282;2022-10-19T03:19:39;3.37;;;1.70;;
12585;SDS011;6358;50.760;0.282;2022-10-19T03:22:05;3.27;;;2.00;;
12585;SDS011;6358;50.760;0.282;2022-10-19T03:24:31;4.07;;;2.07;;
12585;SDS011;6358;50.760;0.282;2022-10-19T03:26:58;3.97;;;2.27;;
12585;SDS011;6358;50.760;0.282;2022-10-19T03:29:24;3.77;;;2.07;;
12585;SDS011;6358;50.760;0.282;2022-10-19T03:31:50;3.67;;;1.77;;
12585;SDS011;6358;50.760;0.282;2022-10-19T03:34:16;4.23;;;2.00;;
12585;SDS011;6358;50.760;0.282;2022-10-19T03:36:42;3.47;;;1.80;;
12585;SDS011;6358;50.760;0.282;2022-10-19T03:39:12;2.93;;;2.10;;
12585;SDS011;6358;50.760;0.282;2022-10-19T03:41:38;4.17;;;1.90;;
12585;SDS011;6358;50.760;0.282;2022-10-19T03:44:05;4.43;;;2.10;;
12585;SDS011;6358;50.760;0.282;2022-10-19T03:46:31;4.30;;;2.20;;
12585;SDS011;6358;50.760;0.282;2022-10-19T03:48:57;4.57;;;1.97;;
12585;SDS011;6358;50.760;0.282;2022-10-19T03:51:25;3.60;;;1.87;;
12585;SDS011;6358;50.760;0.282;2022-10-19T03:53:51;2.87;;;1.70;;
12585;SDS011;6358;50.760;0.282;2022-10-19T03:56:20;4.27;;;2.00;;
12585;SDS011;6358;50.760;0.282;2022-10-19T03:58:47;2.47;;;1.90;;
12585;SDS011;6358;50.760;0.282;2022-10-19T04:03:39;2.73;;;1.90;;
12585;SDS011;6358;50.760;0.282;2022-10-19T04:06:10;3.73;;;2.00;;
12585;SDS011;6358;50.760;0.282;2022-10-19T04:08:36;3.07;;;1.90;;
12585;SDS011;6358;50.760;0.282;2022-10-19T04:11:04;5.10;;;2.33;;
12585;SDS011;6358;50.760;0.282;2022-10-19T04:13:31;3.27;;;2.00;;
12585;SDS011;6358;50.760;0.282;2022-10-19T04:15:57;4.40;;;2.13;;
12585;SDS011;6358;50.760;0.282;2022-10-19T04:18:24;4.80;;;2.27;;
12585;SDS011;6358;50.760;0.282;2022-10-19T04:20:57;3.40;;;2.17;;
12585;SDS011;6358;50.760;0.282;2022-10-19T04:23:25;4.03;;;2.30;;
12585;SDS011;6358;50.760;0.282;2022-10-19T04:25:51;4.10;;;2.20;;
12585;SDS011;6358;50.760;0.282;2022-10-19T04:28:17;2.80;;;2.00;;
12585;SDS011;6358;50.760;0.282;2022-10-19T04:30:43;5.57;;;2.57;;
12585;SDS011;6358;50.760;0.282;2022-10-19T04:33:10;3.50;;;2.00;;
12585;SDS011;6358;50.760;0.282;2022-10-19T04:35:36;3.23;;;1.87;;
12585;SDS011;6358;50.760;0.282;2022-10-19T04:38:02;4.93;;;2.20;;
12585;SDS011;6358;50.760;0.282;2022-10-19T04:40:28;4.27;;;2.23;;
12585;SDS011;6358;50.760;0.282;2022-10-19T04:42:54;4.93;;;2.20;;
12585;SDS011;6358;50.760;0.282;2022-10-19T04:45:20;4.03;;;2.10;;
12585;SDS011;6358;50.760;0.282;2022-10-19T04:47:46;3.80;;;2.20;;
12585;SDS011;6358;50.760;0.282;2022-10-19T04:50:12;5.47;;;2.50;;
12585;SDS011;6358;50.760;0.282;2022-10-19T04:52:38;3.37;;;1.97;;
12585;SDS011;6358;50.760;0.282;2022-10-19T04:55:04;4.00;;;2.60;;
12585;SDS011;6358;50.760;0.282;2022-10-19T04:57:30;5.27;;;2.37;;
12585;SDS011;6358;50.760;0.282;2022-10-19T04:59:56;4.83;;;2.40;;
12585;SDS011;6358;50.760;0.282;2022-10-19T05:02:23;4.87;;;2.50;;
12585;SDS011;6358;50.760;0.282;2022-10-19T05:04:49;3.83;;;2.13;;
12585;SDS011;6358;50.760;0.282;2022-10-19T05:07:15;4.53;;;2.50;;
12585;SDS011;6358;50.760;0.282;2022-10-19T05:09:41;5.17;;;2.53;;
12585;SDS011;6358;50.760;0.282;2022-10-19T05:12:07;5.33;;;2.57;;
12585;SDS011;6358;50.760;0.282;2022-10-19T05:14:33;3.93;;;2.10;;
12585;SDS011;6358;50.760;0.282;2022-10-19T05:16:59;3.93;;;2.03;;
12585;SDS011;6358;50.760;0.282;2022-10-19T05:19:25;3.33;;;2.20;;
12585;SDS011;6358;50.760;0.282;2022-10-19T05:21:51;4.77;;;2.30;;
12585;SDS011;6358;50.760;0.282;2022-10-19T05:24:17;4.30;;;2.10;;
12585;SDS011;6358;50.760;0.282;2022-10-19T05:26:43;5.70;;;2.37;;
12585;SDS011;6358;50.760;0.282;2022-10-19T05:29:11;5.53;;;2.30;;
12585;SDS011;6358;50.760;0.282;2022-10-19T05:31:38;5.10;;;2.20;;
12585;SDS011;6358;50.760;0.282;2022-10-19T05:34:04;5.90;;;2.50;;
12585;SDS011;6358;50.760;0.282;2022-10-19T05:36:31;3.50;;;2.07;;
12585;SDS011;6358;50.760;0.282;2022-10-19T05:38:59;4.33;;;2.33;;
12585;SDS011;6358;50.760;0.282;2022-10-19T05:41:26;4.83;;;2.03;;
12585;SDS011;6358;50.760;0.282;2022-10-19T05:43:53;3.67;;;2.30;;
12585;SDS011;6358;50.760;0.282;2022-10-19T05:46:19;3.43;;;2.10;;
12585;SDS011;6358;50.760;0.282;2022-10-19T05:48:45;4.77;;;2.37;;
12585;SDS011;6358;50.760;0.282;2022-10-19T05:51:12;3.33;;;2.33;;
12585;SDS011;6358;50.760;0.282;2022-10-19T05:53:39;3.70;;;2.23;;
12585;SDS011;6358;50.760;0.282;2022-10-19T05:56:06;3.13;;;2.10;;
12585;SDS011;6358;50.760;0.282;2022-10-19T05:58:33;5.30;;;2.43;;
12585;SDS011;6358;50.760;0.282;2022-10-19T06:00:59;3.73;;;2.13;;
12585;SDS011;6358;50.760;0.282;2022-10-19T06:03:26;3.27;;;2.23;;
12585;SDS011;6358;50.760;0.282;2022-10-19T06:05:52;3.93;;;2.47;;
12585;SDS011;6358;50.760;0.282;2022-10-19T06:08:19;4.90;;;2.47;;
12585;SDS011;6358;50.760;0.282;2022-10-19T06:10:45;3.80;;;2.20;;
12585;SDS011;6358;50.760;0.282;2022-10-19T06:13:12;6.03;;;2.37;;
12585;SDS011;6358;50.760;0.282;2022-10-19T06:15:38;4.00;;;2.03;;
12585;SDS011;6358;50.760;0.282;2022-10-19T06:18:05;4.43;;;2.20;;
12585;SDS011;6358;50.760;0.282;2022-10-19T06:20:35;4.70;;;2.50;;
12585;SDS011;6358;50.760;0.282;2022-10-19T06:23:01;5.53;;;2.27;;
12585;SDS011;6358;50.760;0.282;2022-10-19T06:25:28;4.13;;;2.30;;
12585;SDS011;6358;50.760;0.282;2022-10-19T06:27:55;3.27;;;1.93;;
12585;SDS011;6358;50.760;0.282;2022-10-19T06:30:21;4.07;;;2.37;;
12585;SDS011;6358;50.760;0.282;2022-10-19T06:32:47;5.33;;;2.57;;
12585;SDS011;6358;50.760;0.282;2022-10-19T06:35:13;5.63;;;2.60;;
12585;SDS011;6358;50.760;0.282;2022-10-19T06:37:40;4.70;;;2.40;;
12585;SDS011;6358;50.760;0.282;2022-10-19T06:40:06;4.57;;;2.40;;
12585;SDS011;6358;50.760;0.282;2022-10-19T06:42:32;3.33;;;2.00;;
12585;SDS011;6358;50.760;0.282;2022-10-19T06:44:59;4.43;;;2.20;;
12585;SDS011;6358;50.760;0.282;2022-10-19T06:47:26;4.97;;;2.13;;
12585;SDS011;6358;50.760;0.282;2022-10-19T06:49:56;5.27;;;2.30;;
12585;SDS011;6358;50.760;0.282;2022-10-19T06:52:22;2.77;;;1.87;;
12585;SDS011;6358;50.760;0.282;2022-10-19T06:54:49;4.83;;;2.00;;
12585;SDS011;6358;50.760;0.282;2022-10-19T06:57:15;4.37;;;2.20;;
12585;SDS011;6358;50.760;0.282;2022-10-19T06:59:41;3.27;;;2.10;;
12585;SDS011;6358;50.760;0.282;2022-10-19T07:02:09;3.20;;;2.20;;
12585;SDS011;6358;50.760;0.282;2022-10-19T07:04:35;3.40;;;2.20;;
12585;SDS011;6358;50.760;0.282;2022-10-19T07:07:01;4.57;;;2.00;;
12585;SDS011;6358;50.760;0.282;2022-10-19T07:09:27;4.23;;;2.23;;
12585;SDS011;6358;50.760;0.282;2022-10-19T07:11:53;4.63;;;2.23;;
12585;SDS011;6358;50.760;0.282;2022-10-19T07:14:20;2.97;;;2.00;;
12585;SDS011;6358;50.760;0.282;2022-10-19T07:16:48;4.30;;;2.43;;
12585;SDS011;6358;50.760;0.282;2022-10-19T07:19:15;4.17;;;2.20;;
12585;SDS011;6358;50.760;0.282;2022-10-19T07:21:41;3.43;;;2.10;;
12585;SDS011;6358;50.760;0.282;2022-10-19T07:24:08;6.03;;;2.57;;
12585;SDS011;6358;50.760;0.282;2022-10-19T07:26:36;4.00;;;2.40;;
12585;SDS011;6358;50.760;0.282;2022-10-19T07:29:02;6.03;;;3.10;;
12585;SDS011;6358;50.760;0.282;2022-10-19T07:31:29;5.28;;;3.33;;
12585;SDS011;6358;50.760;0.282;2022-10-19T07:33:56;8.70;;;4.40;;
12585;SDS011;6358;50.760;0.282;2022-10-19T07:36:23;6.43;;;4.17;;
12585;SDS011;6358;50.760;0.282;2022-10-19T07:38:49;6.20;;;4.10;;
12585;SDS011;6358;50.760;0.282;2022-10-19T07:41:17;5.30;;;4.10;;
12585;SDS011;6358;50.760;0.282;2022-10-19T07:43:44;5.40;;;3.70;;
12585;SDS011;6358;50.760;0.282;2022-10-19T07:46:11;6.37;;;4.10;;
12585;SDS011;6358;50.760;0.282;2022-10-19T07:48:38;6.57;;;4.10;;
12585;SDS011;6358;50.760;0.282;2022-10-19T07:51:05;6.87;;;4.27;;
12585;SDS011;6358;50.760;0.282;2022-10-19T07:53:32;8.20;;;4.07;;
12585;SDS011;6358;50.760;0.282;2022-10-19T07:56:03;6.03;;;3.83;;
12585;SDS011;6358;50.760;0.282;2022-10-19T07:58:29;6.87;;;4.10;;
12585;SDS011;6358;50.760;0.282;2022-10-19T08:01:14;6.07;;;4.10;;
12585;SDS011;6358;50.760;0.282;2022-10-19T08:03:41;6.17;;;3.90;;
12585;SDS011;6358;50.760;0.282;2022-10-19T08:06:11;6.57;;;3.83;;
12585;SDS011;6358;50.760;0.282;2022-10-19T08:08:37;6.57;;;4.00;;
12585;SDS011;6358;50.760;0.282;2022-10-19T08:13:33;8.07;;;3.90;;
12585;SDS011;6358;50.760;0.282;2022-10-19T08:15:59;6.80;;;3.23;;
12585;SDS011;6358;50.760;0.282;2022-10-19T08:18:25;8.73;;;4.30;;
12585;SDS011;6358;50.760;0.282;2022-10-19T08:20:51;7.47;;;4.00;;
12585;SDS011;6358;50.760;0.282;2022-10-19T08:23:17;5.43;;;3.70;;
12585;SDS011;6358;50.760;0.282;2022-10-19T08:25:43;5.27;;;3.70;;
12585;SDS011;6358;50.760;0.282;2022-10-19T08:28:09;6.90;;;4.23;;
12585;SDS011;6358;50.760;0.282;2022-10-19T08:30:35;5.07;;;3.60;;
12585;SDS011;6358;50.760;0.282;2022-10-19T08:33:02;8.17;;;3.87;;
12585;SDS011;6358;50.760;0.282;2022-10-19T08:35:31;7.37;;;3.60;;
12585;SDS011;6358;50.760;0.282;2022-10-19T08:37:57;6.47;;;3.63;;
12585;SDS011;6358;50.760;0.282;2022-10-19T08:40:24;6.33;;;3.67;;
12585;SDS011;6358;50.760;0.282;2022-10-19T08:48:28;5.73;;;3.07;;
12585;SDS011;6358;50.760;0.282;2022-10-19T08:50:56;5.87;;;3.30;;
12585;SDS011;6358;50.760;0.282;2022-10-19T08:56:27;5.40;;;3.43;;
12585;SDS011;6358;50.760;0.282;2022-10-19T08:59:03;8.03;;;3.53;;
12585;SDS011;6358;50.760;0.282;2022-10-19T09:04:14;5.57;;;3.10;;
12585;SDS011;6358;50.760;0.282;2022-10-19T09:09:13;6.23;;;3.10;;
12585;SDS011;6358;50.760;0.282;2022-10-19T09:11:45;5.10;;;3.23;;
12585;SDS011;6358;50.760;0.282;2022-10-19T09:14:14;5.80;;;3.13;;
12585;SDS011;6358;50.760;0.282;2022-10-19T09:16:42;4.60;;;3.20;;
12585;SDS011;6358;50.760;0.282;2022-10-19T09:19:12;5.37;;;2.90;;
12585;SDS011;6358;50.760;0.282;2022-10-19T09:21:47;4.43;;;3.20;;
12585;SDS011;6358;50.760;0.282;2022-10-19T09:24:25;6.93;;;3.27;;
12585;SDS011;6358;50.760;0.282;2022-10-19T09:26:54;5.70;;;3.00;;
12585;SDS011;6358;50.760;0.282;2022-10-19T09:32:03;5.43;;;3.13;;
12585;SDS011;6358;50.760;0.282;2022-10-19T09:34:32;3.90;;;2.77;;
12585;SDS011;6358;50.760;0.282;2022-10-19T09:36:59;4.97;;;3.03;;
12585;SDS011;6358;50.760;0.282;2022-10-19T09:39:26;3.93;;;2.83;;
12585;SDS011;6358;50.760;0.282;2022-10-19T09:41:54;5.13;;;2.73;;
12585;SDS011;6358;50.760;0.282;2022-10-19T09:44:21;5.53;;;2.97;;
12585;SDS011;6358;50.760;0.282;2022-10-19T09:52:04;5.67;;;3.17;;
12585;SDS011;6358;50.760;0.282;2022-10-19T09:54:32;9.47;;;3.17;;
12585;SDS011;6358;50.760;0.282;2022-10-19T09:56:59;8.63;;;3.37;;
12585;SDS011;6358;50.760;0.282;2022-10-19T09:59:27;7.63;;;3.17;;
12585;SDS011;6358;50.760;0.282;2022-10-19T10:04:35;8.75;;;3.50;;
12585;SDS011;6358;50.760;0.282;2022-10-19T10:07:01;5.80;;;3.20;;
12585;SDS011;6358;50.760;0.282;2022-10-19T10:09:28;7.70;;;3.40;;
12585;SDS011;6358;50.760;0.282;2022-10-19T10:11:58;5.93;;;3.17;;
12585;SDS011;6358;50.760;0.282;2022-10-19T10:14:28;5.47;;;3.30;;
12585;SDS011;6358;50.760;0.282;2022-10-19T10:19:37;12.80;;;3.60;;
12585;SDS011;6358;50.760;0.282;2022-10-19T10:22:26;8.97;;;3.33;;
12585;SDS011;6358;50.760;0.282;2022-10-19T10:24:53;6.93;;;3.30;;
12585;SDS011;6358;50.760;0.282;2022-10-19T10:27:30;6.80;;;3.30;;
12585;SDS011;6358;50.760;0.282;2022-10-19T10:29:57;7.93;;;2.93;;
12585;SDS011;6358;50.760;0.282;2022-10-19T10:32:23;9.17;;;3.33;;
12585;SDS011;6358;50.760;0.282;2022-10-19T10:34:58;7.27;;;3.50;;
12585;SDS011;6358;50.760;0.282;2022-10-19T10:39:56;5.53;;;3.20;;
12585;SDS011;6358;50.760;0.282;2022-10-19T10:42:31;7.80;;;3.40;;
12585;SDS011;6358;50.760;0.282;2022-10-19T10:44:58;6.53;;;3.43;;
12585;SDS011;6358;50.760;0.282;2022-10-19T10:47:25;8.63;;;3.23;;
12585;SDS011;6358;50.760;0.282;2022-10-19T10:49:53;7.50;;;3.30;;
12585;SDS011;6358;50.760;0.282;2022-10-19T10:52:20;7.53;;;2.97;;
12585;SDS011;6358;50.760;0.282;2022-10-19T10:55:00;9.63;;;3.53;;
12585;SDS011;6358;50.760;0.282;2022-10-19T10:57:29;7.23;;;3.37;;
12585;SDS011;6358;50.760;0.282;2022-10-19T11:00:12;7.77;;;3.00;;
12585;SDS011;6358;50.760;0.282;2022-10-19T11:02:46;5.77;;;3.10;;
12585;SDS011;6358;50.760;0.282;2022-10-19T11:05:24;6.63;;;3.03;;
12585;SDS011;6358;50.760;0.282;2022-10-19T11:07:52;10.07;;;3.20;;
12585;SDS011;6358;50.760;0.282;2022-10-19T11:10:26;5.60;;;2.63;;
12585;SDS011;6358;50.760;0.282;2022-10-19T11:13:09;5.40;;;2.90;;
12585;SDS011;6358;50.760;0.282;2022-10-19T11:18:18;6.60;;;3.00;;
12585;SDS011;6358;50.760;0.282;2022-10-19T11:20:47;6.43;;;2.60;;
12585;SDS011;6358;50.760;0.282;2022-10-19T11:23:19;10.07;;;3.10;;
12585;SDS011;6358;50.760;0.282;2022-10-19T11:26:10;6.37;;;3.03;;
12585;SDS011;6358;50.760;0.282;2022-10-19T11:28:44;5.83;;;2.63;;
12585;SDS011;6358;50.760;0.282;2022-10-19T11:44:28;8.57;;;2.87;;
12585;SDS011;6358;50.760;0.282;2022-10-19T11:51:50;8.93;;;3.00;;
12585;SDS011;6358;50.760;0.282;2022-10-19T11:54:40;6.93;;;2.67;;
12585;SDS011;6358;50.760;0.282;2022-10-19T11:57:12;8.87;;;3.00;;
12585;SDS011;6358;50.760;0.282;2022-10-19T12:04:55;6.87;;;2.83;;
12585;SDS011;6358;50.760;0.282;2022-10-19T12:12:39;5.37;;;2.70;;
12585;SDS011;6358;50.760;0.282;2022-10-19T12:17:36;4.77;;;2.67;;
12585;SDS011;6358;50.760;0.282;2022-10-19T12:20:24;4.97;;;2.63;;
12585;SDS011;6358;50.760;0.282;2022-10-19T12:22:51;6.63;;;2.83;;
12585;SDS011;6358;50.760;0.282;2022-10-19T12:25:17;4.70;;;2.70;;
12585;SDS011;6358;50.760;0.282;2022-10-19T12:27:44;5.00;;;2.50;;
12585;SDS011;6358;50.760;0.282;2022-10-19T12:32:54;6.37;;;2.43;;
12585;SDS011;6358;50.760;0.282;2022-10-19T12:38:02;3.87;;;2.50;;
12585;SDS011;6358;50.760;0.282;2022-10-19T12:43:09;3.80;;;2.50;;
12585;SDS011;6358;50.760;0.282;2022-10-19T12:45:39;4.40;;;2.63;;
12585;SDS011;6358;50.760;0.282;2022-10-19T12:58:50;5.50;;;2.37;;
12585;SDS011;6358;50.760;0.282;2022-10-19T13:01:22;5.57;;;2.57;;
12585;SDS011;6358;50.760;0.282;2022-10-19T13:03:52;5.80;;;2.67;;
12585;SDS011;6358;50.760;0.282;2022-10-19T13:08:55;4.63;;;2.63;;
12585;SDS011;6358;50.760;0.282;2022-10-19T13:11:21;6.07;;;2.90;;
12585;SDS011;6358;50.760;0.282;2022-10-19T13:34:50;5.15;;;2.30;;
12585;SDS011;6358;50.760;0.282;2022-10-19T13:37:16;4.63;;;2.53;;
12585;SDS011;6358;50.760;0.282;2022-10-19T13:39:43;4.17;;;2.60;;
12585;SDS011;6358;50.760;0.282;2022-10-19T13:42:22;6.68;;;2.20;;
12585;SDS011;6358;50.760;0.282;2022-10-19T13:44:48;3.83;;;2.30;;
12585;SDS011;6358;50.760;0.282;2022-10-19T13:47:36;4.68;;;2.38;;
12585;SDS011;6358;50.760;0.282;2022-10-19T13:50:06;5.28;;;2.38;;
12585;SDS011;6358;50.760;0.282;2022-10-19T13:57:47;5.05;;;2.63;;
12585;SDS011;6358;50.760;0.282;2022-10-19T14:00:18;3.53;;;2.20;;
12585;SDS011;6358;50.760;0.282;2022-10-19T14:03:00;4.57;;;2.47;;
12585;SDS011;6358;50.760;0.282;2022-10-19T14:08:17;3.35;;;2.35;;
12585;SDS011;6358;50.760;0.282;2022-10-19T14:10:48;3.43;;;2.03;;
12585;SDS011;6358;50.760;0.282;2022-10-19T14:13:16;4.80;;;2.40;;
12585;SDS011;6358;50.760;0.282;2022-10-19T14:15:49;4.32;;;2.42;;
12585;SDS011;6358;50.760;0.282;2022-10-19T14:18:25;5.43;;;2.60;;
12585;SDS011;6358;50.760;0.282;2022-10-19T14:21:10;5.72;;;2.70;;
12585;SDS011;6358;50.760;0.282;2022-10-19T14:23:37;5.22;;;2.53;;
12585;SDS011;6358;50.760;0.282;2022-10-19T14:26:13;4.72;;;2.53;;
12585;SDS011;6358;50.760;0.282;2022-10-19T14:28:39;4.03;;;2.55;;
12585;SDS011;6358;50.760;0.282;2022-10-19T14:31:17;5.28;;;2.70;;
12585;SDS011;6358;50.760;0.282;2022-10-19T14:33:45;5.25;;;2.85;;
12585;SDS011;6358;50.760;0.282;2022-10-19T14:36:13;4.72;;;2.80;;
12585;SDS011;6358;50.760;0.282;2022-10-19T14:38:41;4.17;;;2.50;;
12585;SDS011;6358;50.760;0.282;2022-10-19T14:46:47;5.13;;;2.80;;
12585;SDS011;6358;50.760;0.282;2022-10-19T14:49:13;5.57;;;2.60;;
12585;SDS011;6358;50.760;0.282;2022-10-19T14:51:58;5.57;;;2.97;;
12585;SDS011;6358;50.760;0.282;2022-10-19T14:54:26;4.45;;;2.80;;
12585;SDS011;6358;50.760;0.282;2022-10-19T14:56:55;6.07;;;3.03;;
12585;SDS011;6358;50.760;0.282;2022-10-19T14:59:24;4.90;;;2.40;;
12585;SDS011;6358;50.760;0.282;2022-10-19T15:01:53;5.72;;;3.20;;
12585;SDS011;6358;50.760;0.282;2022-10-19T15:04:21;4.45;;;2.70;;
12585;SDS011;6358;50.760;0.282;2022-10-19T15:06:48;3.03;;;2.40;;
12585;SDS011;6358;50.760;0.282;2022-10-19T15:11:46;5.78;;;3.00;;
12585;SDS011;6358;50.760;0.282;2022-10-19T15:14:15;6.18;;;3.13;;
12585;SDS011;6358;50.760;0.282;2022-10-19T15:16:51;6.95;;;2.90;;
12585;SDS011;6358;50.760;0.282;2022-10-19T15:19:27;7.05;;;2.75;;
12585;SDS011;6358;50.760;0.282;2022-10-19T15:24:33;6.90;;;3.00;;
12585;SDS011;6358;50.760;0.282;2022-10-19T15:27:15;5.60;;;3.13;;
12585;SDS011;6358;50.760;0.282;2022-10-19T15:32:31;3.97;;;2.67;;
12585;SDS011;6358;50.760;0.282;2022-10-19T15:34:59;6.75;;;2.83;;
12585;SDS011;6358;50.760;0.282;2022-10-19T15:37:25;4.35;;;3.05;;
12585;SDS011;6358;50.760;0.282;2022-10-19T15:39:51;7.72;;;3.55;;
12585;SDS011;6358;50.760;0.282;2022-10-19T15:44:56;7.47;;;3.33;;
12585;SDS011;6358;50.760;0.282;2022-10-19T15:47:22;9.05;;;3.38;;
12585;SDS011;6358;50.760;0.282;2022-10-19T15:52:16;6.53;;;2.90;;
12585;SDS011;6358;50.760;0.282;2022-10-19T15:54:42;6.10;;;3.03;;
12585;SDS011;6358;50.760;0.282;2022-10-19T15:57:33;5.10;;;3.10;;
12585;SDS011;6358;50.760;0.282;2022-10-19T16:00:14;4.93;;;3.17;;
12585;SDS011;6358;50.760;0.282;2022-10-19T16:02:40;5.07;;;2.95;;
12585;SDS011;6358;50.760;0.282;2022-10-19T16:05:07;5.07;;;2.90;;
12585;SDS011;6358;50.760;0.282;2022-10-19T16:07:35;5.30;;;2.85;;
12585;SDS011;6358;50.760;0.282;2022-10-19T16:10:01;6.13;;;3.10;;
12585;SDS011;6358;50.760;0.282;2022-10-19T16:12:27;5.05;;;3.15;;
12585;SDS011;6358;50.760;0.282;2022-10-19T16:14:53;5.83;;;2.90;;
12585;SDS011;6358;50.760;0.282;2022-10-19T16:17:20;5.20;;;2.85;;
12585;SDS011;6358;50.760;0.282;2022-10-19T16:19:46;5.30;;;3.20;;
12585;SDS011;6358;50.760;0.282;2022-10-19T16:22:12;4.93;;;2.80;;
12585;SDS011;6358;50.760;0.282;2022-10-19T16:24:39;5.17;;;3.13;;
12585;SDS011;6358;50.760;0.282;2022-10-19T16:27:05;9.18;;;3.55;;
12585;SDS011;6358;50.760;0.282;2022-10-19T16:29:31;4.97;;;2.60;;
12585;SDS011;6358;50.760;0.282;2022-10-19T16:31:58;5.72;;;3.25;;
12585;SDS011;6358;50.760;0.282;2022-10-19T16:34:24;5.40;;;3.30;;
12585;SDS011;6358;50.760;0.282;2022-10-19T16:36:50;6.65;;;2.97;;
12585;SDS011;6358;50.760;0.282;2022-10-19T16:39:16;5.68;;;3.25;;
12585;SDS011;6358;50.760;0.282;2022-10-19T16:41:43;5.07;;;2.65;;
12585;SDS011;6358;50.760;0.282;2022-10-19T16:44:09;4.80;;;2.85;;
12585;SDS011;6358;50.760;0.282;2022-10-19T16:46:36;4.47;;;2.50;;
12585;SDS011;6358;50.760;0.282;2022-10-19T16:49:02;5.43;;;2.83;;
12585;SDS011;6358;50.760;0.282;2022-10-19T16:51:32;7.00;;;2.92;;
12585;SDS011;6358;50.760;0.282;2022-10-19T16:53:59;5.60;;;2.90;;
12585;SDS011;6358;50.760;0.282;2022-10-19T16:56:26;5.77;;;2.80;;
12585;SDS011;6358;50.760;0.282;2022-10-19T16:58:53;4.18;;;2.42;;
12585;SDS011;6358;50.760;0.282;2022-10-19T17:01:19;4.83;;;2.77;;
12585;SDS011;6358;50.760;0.282;2022-10-19T17:03:46;5.27;;;2.67;;
12585;SDS011;6358;50.760;0.282;2022-10-19T17:06:12;4.63;;;2.83;;
12585;SDS011;6358;50.760;0.282;2022-10-19T17:08:39;5.72;;;2.70;;
12585;SDS011;6358;50.760;0.282;2022-10-19T17:11:22;6.72;;;2.75;;
12585;SDS011;6358;50.760;0.282;2022-10-19T17:13:49;5.32;;;2.72;;
12585;SDS011;6358;50.760;0.282;2022-10-19T17:16:16;4.90;;;2.87;;
12585;SDS011;6358;50.760;0.282;2022-10-19T17:18:43;7.20;;;2.90;;
12585;SDS011;6358;50.760;0.282;2022-10-19T17:21:13;4.93;;;2.92;;
12585;SDS011;6358;50.760;0.282;2022-10-19T17:23:39;4.22;;;2.63;;
12585;SDS011;6358;50.760;0.282;2022-10-19T17:26:06;5.57;;;2.85;;
12585;SDS011;6358;50.760;0.282;2022-10-19T17:28:33;5.67;;;3.00;;
12585;SDS011;6358;50.760;0.282;2022-10-19T17:31:04;4.60;;;2.80;;
12585;SDS011;6358;50.760;0.282;2022-10-19T17:33:30;6.03;;;3.10;;
12585;SDS011;6358;50.760;0.282;2022-10-19T17:36:10;4.67;;;2.60;;
12585;SDS011;6358;50.760;0.282;2022-10-19T17:38:37;3.67;;;2.40;;
12585;SDS011;6358;50.760;0.282;2022-10-19T17:41:04;4.00;;;2.60;;
12585;SDS011;6358;50.760;0.282;2022-10-19T17:43:30;5.40;;;2.70;;
12585;SDS011;6358;50.760;0.282;2022-10-19T17:46:00;5.07;;;2.60;;
12585;SDS011;6358;50.760;0.282;2022-10-19T17:48:27;4.53;;;3.00;;
12585;SDS011;6358;50.760;0.282;2022-10-19T17:50:57;5.23;;;2.93;;
12585;SDS011;6358;50.760;0.282;2022-10-19T17:53:23;5.57;;;3.10;;